Time;durP1;ratioP1;P1;durP2;ratioP2;P2;SDS_P1;SDS_P2;PMS_P1;PMS_P2;Temp;Humidity;BMP_temperature;BMP_pressure;BME280_temperature;BME280_humidity;BME280_pressure;Samples;Min_cycle;Max_cycle;Signal;HPM_P1;HPM_P2
2023/10/14 00:01:25;;;;;;;;;;;21.80;73.00;;;;;;5112244;28;19973;-66
2023/10/14 00:03:52;;;;;;;;;;;21.80;73.20;;;;;;5097614;28;19923;-71
2023/10/14 00:06:19;;;;;;;;;;;21.90;73.20;;;;;;5111872;27;20380;-67
2023/10/14 00:08:57;;;;;;;;;;;21.90;72.50;;;;;;5105734;28;19908;-67
2023/10/14 00:11:27;;;;;;;;;;;22.10;73.00;;;;;;5111187;28;19912;-68
2023/10/14 00:13:53;;;;;;;;;;;22.30;72.60;;;;;;5112923;28;19912;-70
2023/10/14 00:16:35;;;;;;;;;;;22.40;72.30;;;;;;5111483;28;20002;-66
2023/10/14 00:19:05;;;;;;;;;;;22.40;71.90;;;;;;5102198;28;20364;-68
2023/10/14 00:21:35;;;;;;;;;;;22.60;71.80;;;;;;5112192;27;19957;-72
2023/10/14 00:24:06;;;;;;;;;;;22.60;70.70;;;;;;5113400;28;20314;-69
2023/10/14 00:26:33;;;;;;;;;;;22.60;70.90;;;;;;5114938;27;20382;-69
2023/10/14 00:31:45;;;;;;;;;;;22.70;69.70;;;;;;5112858;28;19951;-70
2023/10/14 00:34:14;;;;;;;;;;;22.80;70.30;;;;;;5114056;28;20008;-67
2023/10/14 00:36:41;;;;;;;;;;;22.90;70.00;;;;;;5113016;27;19919;-66
2023/10/14 00:39:14;;;;;;;;;;;23.10;69.50;;;;;;5102172;28;20049;-68
2023/10/14 00:41:42;;;;;;;;;;;23.20;68.70;;;;;;5112051;27;19973;-66
2023/10/14 00:44:09;;;;;;;;;;;23.30;68.90;;;;;;5113503;28;20371;-67
2023/10/14 00:46:42;;;;;;;;;;;23.40;68.00;;;;;;5113135;28;20074;-68
2023/10/14 00:49:12;;;;;;;;;;;23.50;67.50;;;;;;5101551;28;19927;-67
2023/10/14 00:51:44;;;;;;;;;;;23.70;68.50;;;;;;5102942;27;19992;-66
2023/10/14 00:54:12;;;;;;;;;;;23.80;68.00;;;;;;5093421;28;19977;-67
2023/10/14 00:56:46;;;;;;;;;;;23.90;68.00;;;;;;5110562;27;20006;-67
2023/10/14 00:59:14;;;;;;;;;;;24.10;65.90;;;;;;5102460;28;19916;-65
2023/10/14 01:04:21;;;;;;;;;;;24.20;66.60;;;;;;5113410;28;19908;-69
2023/10/14 01:07:02;;;;;;;;;;;24.50;66.10;;;;;;5113428;28;19954;-68
2023/10/14 01:14:45;;;;;;;;;;;24.90;65.30;;;;;;5113597;28;19908;-66
2023/10/14 01:17:25;;;;;;;;;;;25.00;65.20;;;;;;5113330;28;19919;-68
2023/10/14 01:19:52;;;;;;;;;;;25.10;64.40;;;;;;5101567;28;19916;-68
2023/10/14 01:22:19;;;;;;;;;;;25.20;64.00;;;;;;5082075;28;19919;-67
2023/10/14 01:24:51;;;;;;;;;;;25.40;64.50;;;;;;5112902;28;19908;-68
2023/10/14 01:27:21;;;;;;;;;;;25.60;63.30;;;;;;5102702;28;19918;-69
2023/10/14 01:29:51;;;;;;;;;;;25.70;63.00;;;;;;5105496;28;19980;-68
2023/10/14 01:35:24;;;;;;;;;;;25.90;63.50;;;;;;5109485;27;19915;-69
2023/10/14 01:38:00;;;;;;;;;;;26.30;63.60;;;;;;5088579;28;19927;-68
2023/10/14 01:40:33;;;;;;;;;;;26.40;62.70;;;;;;5097910;27;19912;-68
2023/10/14 01:43:08;;;;;;;;;;;26.60;63.20;;;;;;5099376;28;19923;-70
2023/10/14 01:48:25;;;;;;;;;;;27.00;62.40;;;;;;5105362;28;19920;-70
2023/10/14 01:50:55;;;;;;;;;;;27.50;64.70;;;;;;5094025;27;20444;-66
2023/10/14 01:53:26;;;;;;;;;;;27.60;61.20;;;;;;5106645;28;19915;-66
2023/10/14 01:55:54;;;;;;;;;;;27.70;62.00;;;;;;5111488;28;19924;-67
2023/10/14 01:58:22;;;;;;;;;;;27.80;61.80;;;;;;5088232;28;19920;-68
2023/10/14 02:00:53;;;;;;;;;;;27.70;60.80;;;;;;5095731;28;19916;-67
2023/10/14 02:03:23;;;;;;;;;;;27.50;61.70;;;;;;5112883;28;19908;-70
2023/10/14 02:05:52;;;;;;;;;;;27.30;61.30;;;;;;5111432;28;19934;-69
2023/10/14 02:08:23;;;;;;;;;;;27.20;62.20;;;;;;5103680;28;20068;-69
2023/10/14 02:10:50;;;;;;;;;;;27.60;63.50;;;;;;5108533;27;19912;-71
2023/10/14 02:13:18;;;;;;;;;;;27.80;61.80;;;;;;5112117;28;19911;-69
2023/10/14 02:15:46;;;;;;;;;;;28.00;61.60;;;;;;5111568;28;20329;-69
2023/10/14 02:18:20;;;;;;;;;;;28.30;62.30;;;;;;5107725;28;19920;-67
2023/10/14 02:23:45;;;;;;;;;;;28.40;61.40;;;;;;5100329;28;20008;-69
2023/10/14 02:26:11;;;;;;;;;;;28.60;60.80;;;;;;5092288;28;19920;-68
2023/10/14 02:28:41;;;;;;;;;;;29.10;61.50;;;;;;5092105;28;20296;-71
2023/10/14 02:31:17;;;;;;;;;;;28.90;59.80;;;;;;5111538;28;19916;-68
2023/10/14 02:33:47;;;;;;;;;;;29.00;61.20;;;;;;5106764;28;19919;-69
2023/10/14 02:36:16;;;;;;;;;;;29.40;60.50;;;;;;5093250;28;20028;-69
2023/10/14 02:38:53;;;;;;;;;;;29.80;60.00;;;;;;5104413;28;19912;-65
2023/10/14 02:41:20;;;;;;;;;;;30.40;59.10;;;;;;5098808;28;20328;-70
2023/10/14 02:43:51;;;;;;;;;;;31.00;58.00;;;;;;5090068;28;19931;-69
2023/10/14 02:46:21;;;;;;;;;;;31.80;57.20;;;;;;5078953;28;19961;-69
2023/10/14 02:48:53;;;;;;;;;;;32.30;56.20;;;;;;5109464;28;19920;-71
2023/10/14 02:51:36;;;;;;;;;;;33.00;54.90;;;;;;5109832;28;19919;-70
2023/10/14 02:54:15;;;;;;;;;;;33.90;54.00;;;;;;5110417;28;20280;-70
2023/10/14 02:56:56;;;;;;;;;;;35.00;53.70;;;;;;5110701;28;19927;-69
2023/10/14 02:59:35;;;;;;;;;;;35.90;52.30;;;;;;5102387;28;19923;-69
2023/10/14 03:02:14;;;;;;;;;;;36.40;52.10;;;;;;5101543;28;19912;-68
2023/10/14 03:05:32;;;;;;;;;;;36.40;50.70;;;;;;5104097;28;19911;-68
2023/10/14 03:10:09;;;;;;;;;;;38.30;49.60;;;;;;5114615;28;20372;-69
2023/10/14 03:12:39;;;;;;;;;;;39.00;48.60;;;;;;5114029;28;19999;-68
2023/10/14 03:15:30;;;;;;;;;;;39.20;49.00;;;;;;5102984;28;19919;-70
2023/10/14 03:18:04;;;;;;;;;;;39.50;47.80;;;;;;5108262;28;19972;-72
2023/10/14 03:26:11;;;;;;;;;;;40.10;46.80;;;;;;5095514;28;19960;-68
2023/10/14 03:28:38;;;;;;;;;;;39.70;46.60;;;;;;5115795;28;19919;-73
2023/10/14 03:31:08;;;;;;;;;;;39.40;46.30;;;;;;5115333;28;20014;-69
2023/10/14 03:33:43;;;;;;;;;;;39.80;46.70;;;;;;5109433;28;19912;-71
2023/10/14 03:36:15;;;;;;;;;;;39.50;46.20;;;;;;5095615;28;19921;-69
2023/10/14 03:38:46;;;;;;;;;;;39.60;46.20;;;;;;5094503;28;19935;-71
2023/10/14 03:41:19;;;;;;;;;;;39.50;46.20;;;;;;5108812;28;19912;-70
2023/10/14 03:43:54;;;;;;;;;;;39.90;45.80;;;;;;5114158;28;19950;-71
2023/10/14 03:46:31;;;;;;;;;;;40.60;45.90;;;;;;5081310;28;19912;-70
2023/10/14 03:48:58;;;;;;;;;;;41.60;45.80;;;;;;5081753;28;19920;-68
2023/10/14 03:51:25;;;;;;;;;;;41.60;45.10;;;;;;5093544;28;19960;-70
2023/10/14 03:53:55;;;;;;;;;;;41.90;45.20;;;;;;5094038;28;19918;-70
2023/10/14 03:56:24;;;;;;;;;;;42.10;45.50;;;;;;5095559;28;19916;-68
2023/10/14 03:58:55;;;;;;;;;;;42.00;43.90;;;;;;5076549;28;19917;-70
2023/10/14 04:01:30;;;;;;;;;;;42.20;44.90;;;;;;5074993;28;19915;-68
2023/10/14 04:03:56;;;;;;;;;;;42.60;43.70;;;;;;5074804;28;19909;-69
2023/10/14 04:06:23;;;;;;;;;;;42.80;43.40;;;;;;5075082;28;19913;-70
2023/10/14 04:08:50;;;;;;;;;;;42.80;42.70;;;;;;5076226;28;20401;-67
2023/10/14 04:11:25;;;;;;;;;;;42.50;41.90;;;;;;5093693;28;19950;-69
2023/10/14 04:14:13;;;;;;;;;;;42.70;43.20;;;;;;5095111;28;19912;-70
2023/10/14 04:19:37;;;;;;;;;;;43.50;42.60;;;;;;5081861;28;19938;-68
2023/10/14 04:22:25;;;;;;;;;;;44.00;41.50;;;;;;5089428;28;19916;-68
2023/10/14 04:25:42;;;;;;;;;;;44.20;41.40;;;;;;5092502;28;19908;-69
2023/10/14 04:27:56;;;;;;;;;;;43.80;41.10;;;;;;5092932;28;19908;-70
2023/10/14 04:35:26;;;;;;;;;;;43.70;41.80;;;;;;5090906;28;19914;-69
2023/10/14 04:37:57;;;;;;;;;;;43.40;40.30;;;;;;5091799;28;20356;-64
2023/10/14 04:40:53;;;;;;;;;;;43.10;41.00;;;;;;5089026;28;19912;-71
2023/10/14 04:45:52;;;;;;;;;;;42.50;41.70;;;;;;5090298;28;19919;-67
2023/10/14 04:48:27;;;;;;;;;;;42.60;42.10;;;;;;5105854;28;20359;-68
2023/10/14 04:50:57;;;;;;;;;;;42.90;41.20;;;;;;5111866;28;19916;-70
2023/10/14 04:53:27;;;;;;;;;;;43.20;41.00;;;;;;5110266;28;19912;-69
2023/10/14 04:55:54;;;;;;;;;;;43.20;41.50;;;;;;5113401;28;19923;-66
2023/10/14 04:58:25;;;;;;;;;;;43.00;41.60;;;;;;5110302;28;19924;-71
2023/10/14 05:01:00;;;;;;;;;;;43.30;41.90;;;;;;5113024;28;19952;-65
2023/10/14 05:03:34;;;;;;;;;;;43.40;41.10;;;;;;5111981;28;20400;-67
2023/10/14 05:06:18;;;;;;;;;;;43.60;40.60;;;;;;5109194;28;20368;-67
2023/10/14 05:08:44;;;;;;;;;;;43.20;40.70;;;;;;5110481;28;19912;-68
2023/10/14 05:11:13;;;;;;;;;;;42.40;41.20;;;;;;5112796;28;20386;-70
2023/10/14 05:13:42;;;;;;;;;;;42.30;41.20;;;;;;5109471;28;19956;-68
2023/10/14 05:16:20;;;;;;;;;;;42.00;41.10;;;;;;5111596;28;19951;-69
2023/10/14 05:21:36;;;;;;;;;;;41.20;41.30;;;;;;5110533;28;19918;-68
2023/10/14 05:24:10;;;;;;;;;;;40.30;41.60;;;;;;5109317;28;19995;-69
2023/10/14 05:26:44;;;;;;;;;;;39.10;42.50;;;;;;5111681;28;20364;-69
2023/10/14 05:29:17;;;;;;;;;;;38.20;42.70;;;;;;5111854;28;20372;-69
2023/10/14 05:31:44;;;;;;;;;;;37.70;42.80;;;;;;5110374;28;20019;-68
2023/10/14 05:34:10;;;;;;;;;;;37.40;44.00;;;;;;5109749;28;19926;-70
2023/10/14 05:36:38;;;;;;;;;;;37.60;43.10;;;;;;5111982;28;20003;-69
2023/10/14 05:39:06;;;;;;;;;;;37.40;42.20;;;;;;5111228;28;19908;-68
2023/10/14 05:41:39;;;;;;;;;;;37.70;42.80;;;;;;5105256;28;19918;-66
2023/10/14 05:44:06;;;;;;;;;;;37.60;42.70;;;;;;5075136;28;20334;-68
2023/10/14 05:46:33;;;;;;;;;;;37.40;43.60;;;;;;5094238;28;20147;-66
2023/10/14 05:49:01;;;;;;;;;;;36.50;43.40;;;;;;5092681;28;20281;-66
2023/10/14 05:51:28;;;;;;;;;;;35.20;44.40;;;;;;5101231;28;20340;-70
2023/10/14 05:53:56;;;;;;;;;;;34.20;44.90;;;;;;5092494;28;19908;-66
2023/10/14 05:56:27;;;;;;;;;;;33.10;45.70;;;;;;5108271;28;19924;-67
2023/10/14 05:58:54;;;;;;;;;;;32.40;45.40;;;;;;5092322;28;19955;-68
2023/10/14 06:01:21;;;;;;;;;;;31.90;46.60;;;;;;5101159;28;19957;-71
2023/10/14 06:03:49;;;;;;;;;;;31.60;47.40;;;;;;5095345;28;19947;-69
2023/10/14 06:06:16;;;;;;;;;;;31.30;47.60;;;;;;5114323;27;20269;-67
2023/10/14 06:08:46;;;;;;;;;;;31.10;48.40;;;;;;5111379;28;19912;-69
2023/10/14 06:11:19;;;;;;;;;;;30.90;48.90;;;;;;5102241;28;19922;-70
2023/10/14 06:13:46;;;;;;;;;;;30.50;48.20;;;;;;5091748;28;20007;-69
2023/10/14 06:16:13;;;;;;;;;;;30.30;48.40;;;;;;5108138;28;19919;-69
2023/10/14 06:18:41;;;;;;;;;;;30.10;48.80;;;;;;5106250;28;19951;-68
2023/10/14 06:21:10;;;;;;;;;;;30.00;49.00;;;;;;5108589;28;19922;-66
2023/10/14 06:23:40;;;;;;;;;;;30.00;49.20;;;;;;5112547;28;19950;-71
2023/10/14 06:26:07;;;;;;;;;;;30.00;49.20;;;;;;5112270;28;20018;-69
2023/10/14 06:28:34;;;;;;;;;;;29.90;49.20;;;;;;5093450;28;19965;-66
2023/10/14 06:31:00;;;;;;;;;;;29.80;49.90;;;;;;5100690;28;19933;-68
2023/10/14 06:33:29;;;;;;;;;;;29.80;49.70;;;;;;5092247;28;19953;-67
2023/10/14 06:36:03;;;;;;;;;;;29.80;50.20;;;;;;5104781;28;19922;-70
2023/10/14 06:38:33;;;;;;;;;;;29.60;49.90;;;;;;5112597;28;19912;-68
2023/10/14 06:41:01;;;;;;;;;;;29.50;49.70;;;;;;5111210;28;19912;-68
2023/10/14 06:43:28;;;;;;;;;;;29.30;50.10;;;;;;5105701;28;19912;-70
2023/10/14 06:45:56;;;;;;;;;;;29.10;50.40;;;;;;5089522;28;19935;-69
2023/10/14 06:48:23;;;;;;;;;;;29.10;50.70;;;;;;5112258;28;20464;-67
2023/10/14 06:50:50;;;;;;;;;;;28.90;50.60;;;;;;5103135;27;19923;-65
2023/10/14 06:53:19;;;;;;;;;;;28.70;50.80;;;;;;5095625;28;19933;-72
2023/10/14 06:55:46;;;;;;;;;;;28.50;51.00;;;;;;5096258;28;19923;-69
2023/10/14 06:58:18;;;;;;;;;;;28.30;51.40;;;;;;5095862;28;19908;-67
2023/10/14 07:00:45;;;;;;;;;;;28.10;51.70;;;;;;5100337;28;19912;-69
2023/10/14 07:03:16;;;;;;;;;;;27.90;51.90;;;;;;5112396;28;19908;-67
2023/10/14 07:05:57;;;;;;;;;;;27.80;52.10;;;;;;5115689;27;20002;-69
2023/10/14 07:08:24;;;;;;;;;;;27.70;52.60;;;;;;5100973;28;20282;-68
2023/10/14 07:10:52;;;;;;;;;;;27.60;53.10;;;;;;5103728;28;19912;-67
2023/10/14 07:13:22;;;;;;;;;;;27.50;53.20;;;;;;5095213;28;20207;-67
2023/10/14 07:15:51;;;;;;;;;;;27.40;53.50;;;;;;5104912;27;19922;-66
2023/10/14 07:18:25;;;;;;;;;;;27.30;54.00;;;;;;5115314;28;19965;-67
2023/10/14 07:20:59;;;;;;;;;;;27.20;54.50;;;;;;5107536;28;20467;-70
2023/10/14 07:23:27;;;;;;;;;;;27.10;53.60;;;;;;5095402;28;20018;-68
2023/10/14 07:25:54;;;;;;;;;;;27.00;54.00;;;;;;5104992;28;19919;-68
2023/10/14 07:28:20;;;;;;;;;;;26.90;55.10;;;;;;5115344;28;19996;-67
2023/10/14 07:30:48;;;;;;;;;;;26.80;54.40;;;;;;5091152;28;19915;-70
2023/10/14 07:33:16;;;;;;;;;;;26.70;54.20;;;;;;5095160;28;19912;-65
2023/10/14 07:35:43;;;;;;;;;;;26.70;54.10;;;;;;5106466;28;19919;-68
2023/10/14 07:38:10;;;;;;;;;;;26.70;54.20;;;;;;5115074;28;20442;-69
2023/10/14 07:40:38;;;;;;;;;;;26.70;54.50;;;;;;5115094;28;19915;-67
2023/10/14 07:43:07;;;;;;;;;;;26.60;54.90;;;;;;5090762;28;20012;-69
2023/10/14 07:45:44;;;;;;;;;;;26.50;54.90;;;;;;5112220;28;19931;-67
2023/10/14 07:48:11;;;;;;;;;;;26.50;54.90;;;;;;5114830;28;20024;-68
2023/10/14 07:50:42;;;;;;;;;;;26.50;55.10;;;;;;5110701;28;19912;-66
2023/10/14 07:53:12;;;;;;;;;;;26.40;55.00;;;;;;5114233;28;19912;-69
2023/10/14 07:55:43;;;;;;;;;;;26.40;55.60;;;;;;5115199;28;19957;-69
2023/10/14 07:58:10;;;;;;;;;;;26.30;55.90;;;;;;5114309;28;19919;-70
2023/10/14 08:00:39;;;;;;;;;;;26.20;56.60;;;;;;5115793;28;20280;-67
2023/10/14 08:03:07;;;;;;;;;;;26.10;56.30;;;;;;5115834;28;19939;-70
2023/10/14 08:05:39;;;;;;;;;;;26.00;56.40;;;;;;5115190;28;19961;-68
2023/10/14 08:08:07;;;;;;;;;;;25.90;56.90;;;;;;5094432;28;19965;-69
2023/10/14 08:10:34;;;;;;;;;;;25.80;56.40;;;;;;5094970;28;19908;-68
2023/10/14 08:13:09;;;;;;;;;;;25.70;57.00;;;;;;5095191;28;19908;-70
2023/10/14 08:15:36;;;;;;;;;;;25.60;57.60;;;;;;5094690;28;19916;-68
2023/10/14 08:18:06;;;;;;;;;;;25.50;58.10;;;;;;5094169;28;20360;-69
2023/10/14 08:20:33;;;;;;;;;;;25.50;58.30;;;;;;5094480;28;20097;-70
2023/10/14 08:23:00;;;;;;;;;;;25.40;57.20;;;;;;5094942;28;19909;-68
2023/10/14 08:25:28;;;;;;;;;;;25.30;57.80;;;;;;5094983;28;19947;-69
2023/10/14 08:27:57;;;;;;;;;;;25.10;57.00;;;;;;5094838;28;20347;-70
2023/10/14 08:30:32;;;;;;;;;;;25.10;56.60;;;;;;5094795;28;19912;-69
2023/10/14 08:32:59;;;;;;;;;;;25.00;56.30;;;;;;5094960;28;20435;-67
2023/10/14 08:35:29;;;;;;;;;;;25.00;56.00;;;;;;5094712;28;19915;-70
2023/10/14 08:37:57;;;;;;;;;;;25.00;56.10;;;;;;5094712;28;19919;-70
2023/10/14 08:40:26;;;;;;;;;;;24.90;55.70;;;;;;5094550;28;19911;-68
2023/10/14 08:42:52;;;;;;;;;;;24.90;55.80;;;;;;5094587;28;20049;-68
2023/10/14 08:45:20;;;;;;;;;;;24.90;56.90;;;;;;5094756;28;19915;-67
2023/10/14 08:47:50;;;;;;;;;;;24.90;56.00;;;;;;5094185;28;19915;-69
2023/10/14 08:50:18;;;;;;;;;;;24.80;56.10;;;;;;5094351;28;20391;-71
2023/10/14 08:52:45;;;;;;;;;;;24.80;56.10;;;;;;5094199;28;19912;-71
2023/10/14 08:55:14;;;;;;;;;;;24.80;56.30;;;;;;5094224;28;19974;-72
2023/10/14 08:57:41;;;;;;;;;;;24.70;56.50;;;;;;5094251;28;19985;-71
2023/10/14 09:00:12;;;;;;;;;;;24.70;56.60;;;;;;5094215;28;19908;-70
2023/10/14 09:02:39;;;;;;;;;;;24.60;56.90;;;;;;5094089;28;19962;-69
2023/10/14 09:05:11;;;;;;;;;;;24.50;57.40;;;;;;5093616;28;20322;-71
2023/10/14 09:07:41;;;;;;;;;;;24.60;57.20;;;;;;5095305;28;19909;-70
2023/10/14 09:10:08;;;;;;;;;;;24.50;57.60;;;;;;5094289;28;19911;-70
2023/10/14 09:12:35;;;;;;;;;;;24.40;57.70;;;;;;5113375;28;19911;-72
2023/10/14 09:15:01;;;;;;;;;;;24.30;58.10;;;;;;5114360;28;19908;-69
2023/10/14 09:17:28;;;;;;;;;;;24.40;58.60;;;;;;5114448;28;20325;-70
2023/10/14 09:19:55;;;;;;;;;;;24.20;58.90;;;;;;5114151;28;19912;-72
2023/10/14 09:22:22;;;;;;;;;;;24.20;59.10;;;;;;5113736;28;19918;-69
2023/10/14 09:24:50;;;;;;;;;;;24.10;59.20;;;;;;5114133;28;19953;-68
2023/10/14 09:27:17;;;;;;;;;;;24.00;59.40;;;;;;5114258;28;19908;-69
2023/10/14 09:29:44;;;;;;;;;;;24.00;59.50;;;;;;5114121;28;20049;-72
2023/10/14 09:32:10;;;;;;;;;;;24.00;60.40;;;;;;5113724;28;19924;-71
2023/10/14 09:34:37;;;;;;;;;;;23.90;60.90;;;;;;5113918;28;19914;-70
2023/10/14 09:37:10;;;;;;;;;;;23.80;60.30;;;;;;5114217;28;19980;-71
2023/10/14 09:39:39;;;;;;;;;;;23.80;60.10;;;;;;5114089;28;19908;-69
2023/10/14 09:42:12;;;;;;;;;;;23.80;60.20;;;;;;5101840;28;19957;-70
2023/10/14 09:44:42;;;;;;;;;;;23.60;60.50;;;;;;5105711;28;19965;-69
2023/10/14 09:47:22;;;;;;;;;;;23.60;61.10;;;;;;5099928;28;19927;-69
2023/10/14 09:49:50;;;;;;;;;;;23.50;61.50;;;;;;5111461;28;20407;-70
2023/10/14 09:52:17;;;;;;;;;;;23.50;61.40;;;;;;5107633;28;19912;-69
2023/10/14 09:54:45;;;;;;;;;;;23.50;59.70;;;;;;5084051;28;20011;-69
2023/10/14 09:57:12;;;;;;;;;;;23.50;59.70;;;;;;5095809;28;19927;-69
2023/10/14 09:59:43;;;;;;;;;;;23.50;59.90;;;;;;5111825;28;20002;-67
2023/10/14 10:02:09;;;;;;;;;;;23.40;59.70;;;;;;5106224;28;19916;-67
2023/10/14 10:04:40;;;;;;;;;;;23.40;59.70;;;;;;5111814;28;19918;-67
2023/10/14 10:07:15;;;;;;;;;;;23.30;59.60;;;;;;5112362;28;19915;-69
2023/10/14 10:09:42;;;;;;;;;;;23.30;59.40;;;;;;5120317;27;19911;-70
2023/10/14 10:12:10;;;;;;;;;;;23.30;59.70;;;;;;5106838;28;19950;-68
2023/10/14 10:14:42;;;;;;;;;;;23.30;60.10;;;;;;5112495;28;20391;-66
2023/10/14 10:17:12;;;;;;;;;;;23.20;60.70;;;;;;5108841;28;19972;-69
2023/10/14 10:19:57;;;;;;;;;;;23.10;60.70;;;;;;5105219;28;19912;-67
2023/10/14 10:22:24;;;;;;;;;;;23.00;60.90;;;;;;5095663;28;19965;-66
2023/10/14 10:24:50;;;;;;;;;;;23.00;62.50;;;;;;5100522;28;19912;-67
2023/10/14 10:27:17;;;;;;;;;;;22.90;63.00;;;;;;5097710;28;19915;-64
2023/10/14 10:29:51;;;;;;;;;;;22.80;61.60;;;;;;5096963;28;19961;-66
2023/10/14 10:32:24;;;;;;;;;;;22.80;62.40;;;;;;5103657;28;20371;-65
2023/10/14 10:35:06;;;;;;;;;;;22.70;61.20;;;;;;5091846;28;19912;-67
2023/10/14 10:37:49;;;;;;;;;;;22.70;61.10;;;;;;5092976;28;19920;-67
2023/10/14 10:40:25;;;;;;;;;;;22.70;61.50;;;;;;5110991;28;20335;-66
2023/10/14 10:43:20;;;;;;;;;;;22.60;61.10;;;;;;5111338;28;19922;-65
2023/10/14 10:45:47;;;;;;;;;;;22.70;61.10;;;;;;5091830;28;19908;-69
2023/10/14 10:48:16;;;;;;;;;;;22.70;61.20;;;;;;5097282;28;20281;-69
2023/10/14 10:50:50;;;;;;;;;;;22.80;61.60;;;;;;5112159;28;19908;-70
2023/10/14 10:53:18;;;;;;;;;;;22.70;61.40;;;;;;5111484;28;19912;-68
2023/10/14 10:55:48;;;;;;;;;;;22.70;61.40;;;;;;5100823;28;20387;-70
2023/10/14 10:58:15;;;;;;;;;;;22.70;61.60;;;;;;5100666;28;19926;-69
2023/10/14 11:00:43;;;;;;;;;;;22.70;62.40;;;;;;5093848;28;19912;-69
2023/10/14 11:03:15;;;;;;;;;;;22.70;61.90;;;;;;5112312;28;20387;-68
2023/10/14 11:05:42;;;;;;;;;;;22.60;62.70;;;;;;5106170;28;19919;-69
2023/10/14 11:08:09;;;;;;;;;;;22.60;62.40;;;;;;5111711;28;19920;-69
2023/10/14 11:10:43;;;;;;;;;;;22.60;62.60;;;;;;5111508;28;19915;-70
2023/10/14 11:13:11;;;;;;;;;;;22.60;62.60;;;;;;5111997;28;19934;-71
2023/10/14 11:15:38;;;;;;;;;;;22.50;62.60;;;;;;5101271;28;20606;-67
2023/10/14 11:18:06;;;;;;;;;;;22.50;62.70;;;;;;5095465;28;19916;-71
2023/10/14 11:20:34;;;;;;;;;;;22.50;63.10;;;;;;5111209;28;20552;-70
2023/10/14 11:23:03;;;;;;;;;;;22.40;62.80;;;;;;5111659;28;20006;-69
2023/10/14 11:25:35;;;;;;;;;;;22.40;62.90;;;;;;5091170;28;19909;-67
2023/10/14 11:28:05;;;;;;;;;;;22.40;63.20;;;;;;5094393;28;19908;-69
2023/10/14 11:30:31;;;;;;;;;;;22.40;63.50;;;;;;5114532;28;20002;-66
2023/10/14 11:32:59;;;;;;;;;;;22.30;63.60;;;;;;5109405;28;19939;-68
2023/10/14 11:35:29;;;;;;;;;;;22.30;63.80;;;;;;5094255;28;20288;-69
2023/10/14 11:38:00;;;;;;;;;;;22.30;64.40;;;;;;5095491;28;19917;-71
2023/10/14 11:40:33;;;;;;;;;;;22.20;64.00;;;;;;5096584;28;19908;-72
2023/10/14 11:43:00;;;;;;;;;;;22.20;64.20;;;;;;5114552;28;19912;-71
2023/10/14 11:45:27;;;;;;;;;;;22.20;64.00;;;;;;5106569;28;19976;-69
2023/10/14 11:47:54;;;;;;;;;;;22.20;64.10;;;;;;5094912;28;19924;-69
2023/10/14 11:50:21;;;;;;;;;;;22.20;64.10;;;;;;5128934;27;19916;-67
2023/10/14 11:52:49;;;;;;;;;;;22.20;63.90;;;;;;5114239;28;20276;-68
2023/10/14 11:55:15;;;;;;;;;;;22.20;63.90;;;;;;5101493;28;19918;-68
2023/10/14 11:57:46;;;;;;;;;;;22.20;64.10;;;;;;5094952;28;19916;-70
2023/10/14 12:00:20;;;;;;;;;;;22.20;64.30;;;;;;5113737;28;19912;-72
2023/10/14 12:02:50;;;;;;;;;;;22.20;63.90;;;;;;5115302;28;19924;-70
2023/10/14 12:05:17;;;;;;;;;;;22.10;64.10;;;;;;5110032;28;19957;-71
2023/10/14 12:07:44;;;;;;;;;;;22.10;63.90;;;;;;5095197;28;19915;-72
2023/10/14 12:10:11;;;;;;;;;;;22.10;63.80;;;;;;5094873;28;19919;-66
2023/10/14 12:12:38;;;;;;;;;;;22.10;64.00;;;;;;5107364;28;19912;-66
2023/10/14 12:15:06;;;;;;;;;;;22.00;64.20;;;;;;5114834;28;20007;-65
2023/10/14 12:17:35;;;;;;;;;;;22.00;64.20;;;;;;5114345;28;19920;-67
2023/10/14 12:20:10;;;;;;;;;;;21.90;64.60;;;;;;5114753;28;19912;-66
2023/10/14 12:22:38;;;;;;;;;;;21.80;64.70;;;;;;5115085;28;20437;-68
2023/10/14 12:25:05;;;;;;;;;;;21.80;65.00;;;;;;5114563;28;19916;-66
2023/10/14 12:27:33;;;;;;;;;;;21.70;65.30;;;;;;5114536;28;19908;-73
2023/10/14 12:30:01;;;;;;;;;;;21.60;65.50;;;;;;5101963;28;19919;-72
2023/10/14 12:32:31;;;;;;;;;;;21.60;65.90;;;;;;5094430;28;19908;-74
2023/10/14 12:35:01;;;;;;;;;;;21.60;66.00;;;;;;5098346;28;19908;-72
2023/10/14 12:37:30;;;;;;;;;;;21.50;66.10;;;;;;5114549;28;19922;-74
2023/10/14 12:40:04;;;;;;;;;;;21.50;66.50;;;;;;5113595;27;19935;-71
2023/10/14 12:42:46;;;;;;;;;;;21.40;66.90;;;;;;5104964;28;19908;-69
2023/10/14 12:45:22;;;;;;;;;;;21.40;67.40;;;;;;5108682;28;19973;-69
2023/10/14 12:47:50;;;;;;;;;;;21.20;67.70;;;;;;5106297;28;20428;-70
2023/10/14 12:50:20;;;;;;;;;;;21.10;68.00;;;;;;5114389;28;19912;-69
2023/10/14 12:52:56;;;;;;;;;;;21.10;68.40;;;;;;5112175;28;19916;-70
2023/10/14 12:55:23;;;;;;;;;;;21.00;68.50;;;;;;5114014;28;20322;-71
2023/10/14 12:57:51;;;;;;;;;;;20.90;69.40;;;;;;5083111;28;19920;-70
2023/10/14 13:00:25;;;;;;;;;;;20.90;69.10;;;;;;5098083;28;19912;-69
2023/10/14 13:02:53;;;;;;;;;;;20.80;69.30;;;;;;5114184;28;20275;-71
2023/10/14 13:05:20;;;;;;;;;;;20.80;69.60;;;;;;5113109;28;19943;-69
2023/10/14 13:07:47;;;;;;;;;;;20.70;69.80;;;;;;5103113;28;19912;-69
2023/10/14 13:10:23;;;;;;;;;;;20.60;70.00;;;;;;5096514;28;19923;-69
2023/10/14 13:12:53;;;;;;;;;;;20.60;70.40;;;;;;5112634;28;19950;-72
2023/10/14 13:15:30;;;;;;;;;;;20.50;70.70;;;;;;5113807;28;19908;-70
2023/10/14 13:17:58;;;;;;;;;;;20.40;70.90;;;;;;5114208;28;19916;-68
2023/10/14 13:20:28;;;;;;;;;;;20.40;71.10;;;;;;5114158;28;20008;-70
2023/10/14 13:23:04;;;;;;;;;;;20.40;71.50;;;;;;5112414;28;19947;-69
2023/10/14 13:25:37;;;;;;;;;;;20.30;71.90;;;;;;5113420;28;19962;-71
2023/10/14 13:28:11;;;;;;;;;;;20.30;71.70;;;;;;5099113;28;19912;-70
2023/10/14 13:30:45;;;;;;;;;;;20.20;72.10;;;;;;5093336;28;19934;-68
2023/10/14 13:33:12;;;;;;;;;;;20.10;72.40;;;;;;5093929;28;19995;-70
2023/10/14 13:35:40;;;;;;;;;;;20.10;72.60;;;;;;5098333;28;19957;-67
2023/10/14 13:38:10;;;;;;;;;;;20.00;72.70;;;;;;5093675;28;19915;-71
2023/10/14 13:40:38;;;;;;;;;;;20.00;73.10;;;;;;5093346;28;19960;-71
2023/10/14 13:43:05;;;;;;;;;;;19.90;73.40;;;;;;5093479;28;20384;-70
2023/10/14 13:45:32;;;;;;;;;;;19.80;73.40;;;;;;5082252;28;19912;-69
2023/10/14 13:48:07;;;;;;;;;;;19.80;73.50;;;;;;5113648;28;19920;-69
2023/10/14 13:50:43;;;;;;;;;;;19.70;73.20;;;;;;5113581;28;19912;-72
2023/10/14 13:53:52;;;;;;;;;;;19.70;73.40;;;;;;5104964;28;19912;-69
2023/10/14 13:56:00;;;;;;;;;;;19.60;73.70;;;;;;5087467;28;20006;-72
2023/10/14 13:58:26;;;;;;;;;;;19.50;73.40;;;;;;5100007;28;19916;-67
2023/10/14 14:00:55;;;;;;;;;;;19.50;73.20;;;;;;5093177;28;19975;-70
2023/10/14 14:03:28;;;;;;;;;;;19.40;73.40;;;;;;5093223;28;19959;-69
2023/10/14 14:05:55;;;;;;;;;;;19.40;73.20;;;;;;5093154;28;19950;-71
2023/10/14 14:08:28;;;;;;;;;;;19.40;73.50;;;;;;5099242;28;20012;-68
2023/10/14 14:11:03;;;;;;;;;;;19.30;73.10;;;;;;5113026;28;19907;-67
2023/10/14 14:13:31;;;;;;;;;;;19.30;73.00;;;;;;5113159;28;19904;-72
2023/10/14 14:15:57;;;;;;;;;;;19.20;73.00;;;;;;5113157;28;19911;-70
2023/10/14 14:18:24;;;;;;;;;;;19.20;73.00;;;;;;5113568;28;19934;-70
2023/10/14 14:20:51;;;;;;;;;;;19.20;73.40;;;;;;5103780;28;19924;-71
2023/10/14 14:23:18;;;;;;;;;;;19.20;72.90;;;;;;5092918;28;19909;-72
2023/10/14 14:25:44;;;;;;;;;;;19.10;72.60;;;;;;5093115;28;19909;-67
2023/10/14 14:28:11;;;;;;;;;;;19.10;72.10;;;;;;5093004;28;19908;-70
2023/10/14 14:30:39;;;;;;;;;;;19.00;72.00;;;;;;5092645;28;19969;-69
2023/10/14 14:33:07;;;;;;;;;;;19.00;71.90;;;;;;5106311;28;19999;-68
2023/10/14 14:35:34;;;;;;;;;;;19.00;71.40;;;;;;5113282;28;19923;-68
2023/10/14 14:38:02;;;;;;;;;;;19.00;71.40;;;;;;5112786;28;20048;-70
2023/10/14 14:40:33;;;;;;;;;;;18.90;71.50;;;;;;5113080;28;19908;-68
2023/10/14 14:43:00;;;;;;;;;;;18.90;71.80;;;;;;5112493;28;20276;-66
2023/10/14 14:45:28;;;;;;;;;;;18.80;71.60;;;;;;5096509;28;19912;-65
2023/10/14 14:48:00;;;;;;;;;;;18.80;71.70;;;;;;5092594;28;19920;-67
2023/10/14 14:50:29;;;;;;;;;;;18.70;71.50;;;;;;5092814;28;19908;-71
2023/10/14 14:52:59;;;;;;;;;;;18.70;71.40;;;;;;5092430;28;20379;-69
2023/10/14 14:55:27;;;;;;;;;;;18.70;71.60;;;;;;5096334;28;19911;-72
2023/10/14 14:57:54;;;;;;;;;;;18.70;71.40;;;;;;5112367;28;19927;-67
2023/10/14 15:00:28;;;;;;;;;;;18.70;71.70;;;;;;5113168;28;19908;-67
2023/10/14 15:02:59;;;;;;;;;;;18.70;72.20;;;;;;5113765;28;19911;-68
2023/10/14 15:05:28;;;;;;;;;;;18.60;72.60;;;;;;5113616;28;19919;-68
2023/10/14 15:07:55;;;;;;;;;;;18.60;72.50;;;;;;5096513;28;19908;-68
2023/10/14 15:10:22;;;;;;;;;;;18.50;72.30;;;;;;5078304;28;19915;-69
2023/10/14 15:12:49;;;;;;;;;;;18.50;72.10;;;;;;5108653;28;20006;-69
2023/10/14 15:15:16;;;;;;;;;;;18.50;72.80;;;;;;5116918;28;19912;-68